sensor_id;sensor_type;location;lat;lon;timestamp;P1;durP1;ratioP1;P2;durP2;ratioP2
53931;SDS011;39844;52.496;13.482;2023-05-23T00:00:33;2.63;;;2.40;;
53931;SDS011;39844;52.496;13.482;2023-05-23T00:02:58;2.50;;;2.40;;
53931;SDS011;39844;52.496;13.482;2023-05-23T00:05:23;2.30;;;2.10;;
53931;SDS011;39844;52.496;13.482;2023-05-23T00:07:49;2.20;;;2.10;;
53931;SDS011;39844;52.496;13.482;2023-05-23T00:10:14;2.70;;;2.43;;
53931;SDS011;39844;52.496;13.482;2023-05-23T00:12:39;2.83;;;2.50;;
53931;SDS011;39844;52.496;13.482;2023-05-23T00:15:05;3.33;;;2.30;;
53931;SDS011;39844;52.496;13.482;2023-05-23T00:17:30;2.53;;;2.30;;
53931;SDS011;39844;52.496;13.482;2023-05-23T00:19:56;3.80;;;2.70;;
53931;SDS011;39844;52.496;13.482;2023-05-23T00:22:21;2.23;;;2.03;;
53931;SDS011;39844;52.496;13.482;2023-05-23T00:24:46;2.40;;;2.20;;
53931;SDS011;39844;52.496;13.482;2023-05-23T00:27:12;2.30;;;2.10;;
53931;SDS011;39844;52.496;13.482;2023-05-23T00:29:37;2.53;;;2.33;;
53931;SDS011;39844;52.496;13.482;2023-05-23T00:32:02;3.13;;;2.20;;
53931;SDS011;39844;52.496;13.482;2023-05-23T00:34:27;4.17;;;2.70;;
53931;SDS011;39844;52.496;13.482;2023-05-23T00:36:55;4.17;;;2.50;;
53931;SDS011;39844;52.496;13.482;2023-05-23T00:39:20;3.60;;;2.80;;
53931;SDS011;39844;52.496;13.482;2023-05-23T00:41:46;6.37;;;2.57;;
53931;SDS011;39844;52.496;13.482;2023-05-23T00:44:12;4.17;;;2.57;;
53931;SDS011;39844;52.496;13.482;2023-05-23T00:46:37;2.30;;;2.20;;
53931;SDS011;39844;52.496;13.482;2023-05-23T00:49:03;2.67;;;2.47;;
53931;SDS011;39844;52.496;13.482;2023-05-23T00:51:28;2.30;;;2.10;;
53931;SDS011;39844;52.496;13.482;2023-05-23T00:53:54;5.33;;;2.40;;
53931;SDS011;39844;52.496;13.482;2023-05-23T00:56:20;2.43;;;2.23;;
53931;SDS011;39844;52.496;13.482;2023-05-23T00:58:45;7.67;;;2.53;;
53931;SDS011;39844;52.496;13.482;2023-05-23T01:01:11;3.57;;;2.67;;
53931;SDS011;39844;52.496;13.482;2023-05-23T01:03:36;2.33;;;2.13;;
53931;SDS011;39844;52.496;13.482;2023-05-23T01:06:01;3.07;;;2.30;;
53931;SDS011;39844;52.496;13.482;2023-05-23T01:08:27;2.47;;;2.20;;
53931;SDS011;39844;52.496;13.482;2023-05-23T01:10:53;4.03;;;2.77;;
53931;SDS011;39844;52.496;13.482;2023-05-23T01:13:23;3.63;;;2.70;;
53931;SDS011;39844;52.496;13.482;2023-05-23T01:18:38;2.43;;;2.23;;
53931;SDS011;39844;52.496;13.482;2023-05-23T01:21:10;2.30;;;2.10;;
53931;SDS011;39844;52.496;13.482;2023-05-23T01:26:31;5.40;;;2.70;;
53931;SDS011;39844;52.496;13.482;2023-05-23T01:29:23;3.50;;;2.40;;
53931;SDS011;39844;52.496;13.482;2023-05-23T01:32:03;3.90;;;2.80;;
53931;SDS011;39844;52.496;13.482;2023-05-23T01:34:31;6.87;;;2.50;;
53931;SDS011;39844;52.496;13.482;2023-05-23T01:36:59;3.60;;;2.43;;
53931;SDS011;39844;52.496;13.482;2023-05-23T01:39:24;2.57;;;2.37;;
53931;SDS011;39844;52.496;13.482;2023-05-23T01:41:49;3.27;;;2.60;;
53931;SDS011;39844;52.496;13.482;2023-05-23T01:44:16;2.77;;;2.50;;
53931;SDS011;39844;52.496;13.482;2023-05-23T01:46:42;4.17;;;2.77;;
53931;SDS011;39844;52.496;13.482;2023-05-23T01:49:11;2.50;;;2.30;;
53931;SDS011;39844;52.496;13.482;2023-05-23T01:51:37;2.03;;;1.90;;
53931;SDS011;39844;52.496;13.482;2023-05-23T01:54:03;4.27;;;2.63;;
53931;SDS011;39844;52.496;13.482;2023-05-23T01:56:28;4.00;;;2.73;;
53931;SDS011;39844;52.496;13.482;2023-05-23T01:58:54;3.10;;;2.80;;
53931;SDS011;39844;52.496;13.482;2023-05-23T02:01:20;2.90;;;2.70;;
53931;SDS011;39844;52.496;13.482;2023-05-23T02:03:45;2.93;;;2.73;;
53931;SDS011;39844;52.496;13.482;2023-05-23T02:06:11;3.13;;;2.73;;
53931;SDS011;39844;52.496;13.482;2023-05-23T02:08:36;6.40;;;3.13;;
53931;SDS011;39844;52.496;13.482;2023-05-23T02:11:02;2.70;;;2.30;;
53931;SDS011;39844;52.496;13.482;2023-05-23T02:13:27;3.47;;;2.70;;
53931;SDS011;39844;52.496;13.482;2023-05-23T02:15:52;2.50;;;2.30;;
53931;SDS011;39844;52.496;13.482;2023-05-23T02:18:17;3.07;;;2.63;;
53931;SDS011;39844;52.496;13.482;2023-05-23T02:20:44;5.47;;;3.00;;
53931;SDS011;39844;52.496;13.482;2023-05-23T02:23:09;3.03;;;2.70;;
53931;SDS011;39844;52.496;13.482;2023-05-23T02:25:34;2.23;;;2.03;;
53931;SDS011;39844;52.496;13.482;2023-05-23T02:27:59;3.43;;;3.03;;
53931;SDS011;39844;52.496;13.482;2023-05-23T02:30:25;3.37;;;2.40;;
53931;SDS011;39844;52.496;13.482;2023-05-23T02:32:50;2.57;;;2.30;;
53931;SDS011;39844;52.496;13.482;2023-05-23T02:35:15;2.57;;;2.37;;
53931;SDS011;39844;52.496;13.482;2023-05-23T02:37:41;2.53;;;2.27;;
53931;SDS011;39844;52.496;13.482;2023-05-23T02:40:06;3.40;;;2.57;;
53931;SDS011;39844;52.496;13.482;2023-05-23T02:42:32;3.63;;;2.53;;
53931;SDS011;39844;52.496;13.482;2023-05-23T02:44:58;2.70;;;2.50;;
53931;SDS011;39844;52.496;13.482;2023-05-23T02:47:23;2.90;;;2.47;;
53931;SDS011;39844;52.496;13.482;2023-05-23T02:49:48;9.60;;;2.57;;
53931;SDS011;39844;52.496;13.482;2023-05-23T02:52:14;2.97;;;2.67;;
53931;SDS011;39844;52.496;13.482;2023-05-23T02:54:41;2.90;;;2.70;;
53931;SDS011;39844;52.496;13.482;2023-05-23T02:57:07;3.00;;;2.70;;
53931;SDS011;39844;52.496;13.482;2023-05-23T02:59:32;3.30;;;2.67;;
53931;SDS011;39844;52.496;13.482;2023-05-23T03:01:57;3.23;;;2.70;;
53931;SDS011;39844;52.496;13.482;2023-05-23T03:04:23;3.10;;;2.77;;
53931;SDS011;39844;52.496;13.482;2023-05-23T03:06:48;3.20;;;2.63;;
53931;SDS011;39844;52.496;13.482;2023-05-23T03:09:14;2.67;;;2.47;;
53931;SDS011;39844;52.496;13.482;2023-05-23T03:11:39;7.20;;;2.87;;
53931;SDS011;39844;52.496;13.482;2023-05-23T03:14:04;3.27;;;3.03;;
53931;SDS011;39844;52.496;13.482;2023-05-23T03:16:30;2.93;;;2.40;;
53931;SDS011;39844;52.496;13.482;2023-05-23T03:18:55;3.40;;;3.10;;
53931;SDS011;39844;52.496;13.482;2023-05-23T03:21:20;2.50;;;2.30;;
53931;SDS011;39844;52.496;13.482;2023-05-23T03:23:45;2.73;;;2.47;;
53931;SDS011;39844;52.496;13.482;2023-05-23T03:26:11;3.13;;;2.83;;
53931;SDS011;39844;52.496;13.482;2023-05-23T03:28:36;2.57;;;2.37;;
53931;SDS011;39844;52.496;13.482;2023-05-23T03:31:01;2.93;;;2.43;;
53931;SDS011;39844;52.496;13.482;2023-05-23T03:33:27;3.33;;;2.60;;
53931;SDS011;39844;52.496;13.482;2023-05-23T03:35:52;4.27;;;2.70;;
53931;SDS011;39844;52.496;13.482;2023-05-23T03:38:17;6.07;;;2.83;;
53931;SDS011;39844;52.496;13.482;2023-05-23T03:40:43;3.27;;;2.97;;
53931;SDS011;39844;52.496;13.482;2023-05-23T03:43:08;3.20;;;2.90;;
53931;SDS011;39844;52.496;13.482;2023-05-23T03:45:33;4.90;;;2.60;;
53931;SDS011;39844;52.496;13.482;2023-05-23T03:47:59;2.80;;;2.60;;
53931;SDS011;39844;52.496;13.482;2023-05-23T03:50:25;8.07;;;2.70;;
53931;SDS011;39844;52.496;13.482;2023-05-23T03:52:50;3.47;;;2.80;;
53931;SDS011;39844;52.496;13.482;2023-05-23T03:55:16;2.97;;;2.60;;
53931;SDS011;39844;52.496;13.482;2023-05-23T03:57:41;3.93;;;2.67;;
53931;SDS011;39844;52.496;13.482;2023-05-23T04:00:07;3.70;;;2.70;;
53931;SDS011;39844;52.496;13.482;2023-05-23T04:02:32;4.83;;;2.87;;
53931;SDS011;39844;52.496;13.482;2023-05-23T04:05:00;3.83;;;3.00;;
53931;SDS011;39844;52.496;13.482;2023-05-23T04:07:25;2.57;;;2.37;;
53931;SDS011;39844;52.496;13.482;2023-05-23T04:09:50;3.33;;;3.03;;
53931;SDS011;39844;52.496;13.482;2023-05-23T04:12:16;4.23;;;3.43;;
53931;SDS011;39844;52.496;13.482;2023-05-23T04:14:41;4.03;;;3.03;;
53931;SDS011;39844;52.496;13.482;2023-05-23T04:17:06;3.00;;;2.70;;
53931;SDS011;39844;52.496;13.482;2023-05-23T04:19:31;5.73;;;2.70;;
53931;SDS011;39844;52.496;13.482;2023-05-23T04:21:57;3.63;;;2.80;;
53931;SDS011;39844;52.496;13.482;2023-05-23T04:24:22;3.20;;;2.40;;
53931;SDS011;39844;52.496;13.482;2023-05-23T04:26:47;3.70;;;2.43;;
53931;SDS011;39844;52.496;13.482;2023-05-23T04:29:13;3.93;;;3.17;;
53931;SDS011;39844;52.496;13.482;2023-05-23T04:31:38;3.97;;;3.07;;
53931;SDS011;39844;52.496;13.482;2023-05-23T04:34:03;3.17;;;2.87;;
53931;SDS011;39844;52.496;13.482;2023-05-23T04:36:28;4.67;;;2.93;;
53931;SDS011;39844;52.496;13.482;2023-05-23T04:38:54;3.47;;;3.03;;
53931;SDS011;39844;52.496;13.482;2023-05-23T04:41:19;3.20;;;2.90;;
53931;SDS011;39844;52.496;13.482;2023-05-23T04:43:44;6.47;;;2.73;;
53931;SDS011;39844;52.496;13.482;2023-05-23T04:46:10;3.43;;;3.13;;
53931;SDS011;39844;52.496;13.482;2023-05-23T04:48:35;8.97;;;3.17;;
53931;SDS011;39844;52.496;13.482;2023-05-23T04:51:01;3.17;;;2.67;;
53931;SDS011;39844;52.496;13.482;2023-05-23T04:53:26;3.77;;;3.00;;
53931;SDS011;39844;52.496;13.482;2023-05-23T04:55:52;3.40;;;2.30;;
53931;SDS011;39844;52.496;13.482;2023-05-23T04:58:17;3.50;;;2.90;;
53931;SDS011;39844;52.496;13.482;2023-05-23T05:00:42;4.60;;;2.77;;
53931;SDS011;39844;52.496;13.482;2023-05-23T05:03:08;3.23;;;2.50;;
53931;SDS011;39844;52.496;13.482;2023-05-23T05:05:33;3.17;;;2.90;;
53931;SDS011;39844;52.496;13.482;2023-05-23T05:07:58;3.50;;;3.00;;
53931;SDS011;39844;52.496;13.482;2023-05-23T05:10:23;3.17;;;2.50;;
53931;SDS011;39844;52.496;13.482;2023-05-23T05:12:49;3.07;;;2.83;;
53931;SDS011;39844;52.496;13.482;2023-05-23T05:15:17;4.57;;;3.20;;
53931;SDS011;39844;52.496;13.482;2023-05-23T05:17:43;3.10;;;2.80;;
53931;SDS011;39844;52.496;13.482;2023-05-23T05:20:09;3.57;;;2.93;;
53931;SDS011;39844;52.496;13.482;2023-05-23T05:22:38;3.17;;;2.80;;
53931;SDS011;39844;52.496;13.482;2023-05-23T05:25:03;2.93;;;2.73;;
53931;SDS011;39844;52.496;13.482;2023-05-23T05:27:29;3.17;;;2.87;;
53931;SDS011;39844;52.496;13.482;2023-05-23T05:29:54;4.20;;;2.83;;
53931;SDS011;39844;52.496;13.482;2023-05-23T05:32:19;3.43;;;2.77;;
53931;SDS011;39844;52.496;13.482;2023-05-23T05:34:45;3.30;;;2.70;;
53931;SDS011;39844;52.496;13.482;2023-05-23T05:37:10;2.90;;;2.70;;
53931;SDS011;39844;52.496;13.482;2023-05-23T05:39:35;2.90;;;2.70;;
53931;SDS011;39844;52.496;13.482;2023-05-23T05:42:00;4.90;;;2.70;;
53931;SDS011;39844;52.496;13.482;2023-05-23T05:44:26;3.40;;;2.83;;
53931;SDS011;39844;52.496;13.482;2023-05-23T05:46:51;5.70;;;3.40;;
53931;SDS011;39844;52.496;13.482;2023-05-23T05:49:16;4.43;;;3.03;;
53931;SDS011;39844;52.496;13.482;2023-05-23T05:51:41;6.20;;;2.80;;
53931;SDS011;39844;52.496;13.482;2023-05-23T05:54:07;3.67;;;3.20;;
53931;SDS011;39844;52.496;13.482;2023-05-23T05:56:32;4.27;;;2.77;;
53931;SDS011;39844;52.496;13.482;2023-05-23T05:58:57;7.63;;;3.00;;
53931;SDS011;39844;52.496;13.482;2023-05-23T06:01:23;6.60;;;3.27;;
53931;SDS011;39844;52.496;13.482;2023-05-23T06:03:48;5.47;;;3.27;;
53931;SDS011;39844;52.496;13.482;2023-05-23T06:06:13;6.43;;;3.10;;
53931;SDS011;39844;52.496;13.482;2023-05-23T06:08:38;2.77;;;2.43;;
53931;SDS011;39844;52.496;13.482;2023-05-23T06:11:06;3.17;;;2.87;;
53931;SDS011;39844;52.496;13.482;2023-05-23T06:13:31;3.60;;;3.10;;
53931;SDS011;39844;52.496;13.482;2023-05-23T06:15:56;3.00;;;2.80;;
53931;SDS011;39844;52.496;13.482;2023-05-23T06:18:22;2.63;;;2.43;;
53931;SDS011;39844;52.496;13.482;2023-05-23T06:20:47;7.83;;;2.63;;
53931;SDS011;39844;52.496;13.482;2023-05-23T06:23:12;6.17;;;2.83;;
53931;SDS011;39844;52.496;13.482;2023-05-23T06:25:37;4.20;;;3.10;;
53931;SDS011;39844;52.496;13.482;2023-05-23T06:28:03;3.77;;;2.90;;
53931;SDS011;39844;52.496;13.482;2023-05-23T06:30:28;4.20;;;3.07;;
53931;SDS011;39844;52.496;13.482;2023-05-23T06:32:53;3.90;;;3.13;;
53931;SDS011;39844;52.496;13.482;2023-05-23T06:35:19;4.23;;;3.03;;
53931;SDS011;39844;52.496;13.482;2023-05-23T06:37:44;4.93;;;2.90;;
53931;SDS011;39844;52.496;13.482;2023-05-23T06:40:10;3.40;;;2.80;;
53931;SDS011;39844;52.496;13.482;2023-05-23T06:42:39;5.30;;;2.77;;
53931;SDS011;39844;52.496;13.482;2023-05-23T06:45:04;5.63;;;3.30;;
53931;SDS011;39844;52.496;13.482;2023-05-23T06:47:30;4.30;;;3.13;;
53931;SDS011;39844;52.496;13.482;2023-05-23T06:49:55;7.73;;;3.07;;
53931;SDS011;39844;52.496;13.482;2023-05-23T06:52:21;3.13;;;2.93;;
53931;SDS011;39844;52.496;13.482;2023-05-23T06:54:46;5.13;;;3.13;;
53931;SDS011;39844;52.496;13.482;2023-05-23T06:57:11;3.77;;;3.13;;
53931;SDS011;39844;52.496;13.482;2023-05-23T06:59:36;4.40;;;3.23;;
53931;SDS011;39844;52.496;13.482;2023-05-23T07:02:02;4.00;;;2.87;;
53931;SDS011;39844;52.496;13.482;2023-05-23T07:04:27;4.70;;;3.07;;
53931;SDS011;39844;52.496;13.482;2023-05-23T07:06:52;3.40;;;3.10;;
53931;SDS011;39844;52.496;13.482;2023-05-23T07:09:18;3.30;;;3.00;;
53931;SDS011;39844;52.496;13.482;2023-05-23T07:11:43;5.00;;;3.10;;
53931;SDS011;39844;52.496;13.482;2023-05-23T07:14:08;3.67;;;2.87;;
53931;SDS011;39844;52.496;13.482;2023-05-23T07:16:33;2.70;;;2.50;;
53931;SDS011;39844;52.496;13.482;2023-05-23T07:19:00;5.40;;;3.03;;
53931;SDS011;39844;52.496;13.482;2023-05-23T07:21:26;3.53;;;3.23;;
53931;SDS011;39844;52.496;13.482;2023-05-23T07:23:51;6.80;;;2.93;;
53931;SDS011;39844;52.496;13.482;2023-05-23T07:26:16;6.47;;;3.33;;
53931;SDS011;39844;52.496;13.482;2023-05-23T07:28:41;8.80;;;3.70;;
53931;SDS011;39844;52.496;13.482;2023-05-23T07:31:07;7.40;;;3.13;;
53931;SDS011;39844;52.496;13.482;2023-05-23T07:33:32;4.60;;;2.87;;
53931;SDS011;39844;52.496;13.482;2023-05-23T07:35:57;3.50;;;3.20;;
53931;SDS011;39844;52.496;13.482;2023-05-23T07:38:23;4.60;;;3.30;;
53931;SDS011;39844;52.496;13.482;2023-05-23T07:40:50;3.60;;;3.07;;
53931;SDS011;39844;52.496;13.482;2023-05-23T07:43:15;4.13;;;3.40;;
53931;SDS011;39844;52.496;13.482;2023-05-23T07:45:40;3.63;;;3.33;;
53931;SDS011;39844;52.496;13.482;2023-05-23T07:48:07;4.67;;;3.27;;
53931;SDS011;39844;52.496;13.482;2023-05-23T07:50:33;3.63;;;3.27;;
53931;SDS011;39844;52.496;13.482;2023-05-23T07:52:58;6.33;;;3.40;;
53931;SDS011;39844;52.496;13.482;2023-05-23T07:55:24;4.37;;;3.13;;
53931;SDS011;39844;52.496;13.482;2023-05-23T07:57:49;2.97;;;2.53;;
53931;SDS011;39844;52.496;13.482;2023-05-23T08:00:14;2.92;;;2.72;;
53931;SDS011;39844;52.496;13.482;2023-05-23T08:02:40;5.90;;;3.17;;
53931;SDS011;39844;52.496;13.482;2023-05-23T08:05:06;3.33;;;2.78;;
53931;SDS011;39844;52.496;13.482;2023-05-23T08:07:32;4.37;;;3.17;;
53931;SDS011;39844;52.496;13.482;2023-05-23T08:09:57;3.80;;;3.50;;
53931;SDS011;39844;52.496;13.482;2023-05-23T08:12:25;3.70;;;3.30;;
53931;SDS011;39844;52.496;13.482;2023-05-23T08:14:50;5.53;;;3.17;;
53931;SDS011;39844;52.496;13.482;2023-05-23T08:17:16;5.22;;;3.30;;
53931;SDS011;39844;52.496;13.482;2023-05-23T08:19:41;4.43;;;3.05;;
53931;SDS011;39844;52.496;13.482;2023-05-23T08:22:06;4.25;;;3.03;;
53931;SDS011;39844;52.496;13.482;2023-05-23T08:24:32;3.30;;;2.80;;
53931;SDS011;39844;52.496;13.482;2023-05-23T08:26:57;9.05;;;3.42;;
53931;SDS011;39844;52.496;13.482;2023-05-23T08:29:23;3.90;;;3.10;;
53931;SDS011;39844;52.496;13.482;2023-05-23T08:31:48;4.10;;;3.28;;
53931;SDS011;39844;52.496;13.482;2023-05-23T08:34:13;6.53;;;3.87;;
53931;SDS011;39844;52.496;13.482;2023-05-23T08:36:39;3.45;;;3.08;;
53931;SDS011;39844;52.496;13.482;2023-05-23T08:39:04;3.88;;;3.53;;
53931;SDS011;39844;52.496;13.482;2023-05-23T08:41:30;12.18;;;3.53;;
53931;SDS011;39844;52.496;13.482;2023-05-23T08:43:58;5.40;;;3.35;;
53931;SDS011;39844;52.496;13.482;2023-05-23T08:46:24;3.85;;;3.50;;
53931;SDS011;39844;52.496;13.482;2023-05-23T08:48:50;3.85;;;3.10;;
53931;SDS011;39844;52.496;13.482;2023-05-23T08:51:17;2.95;;;2.75;;
53931;SDS011;39844;52.496;13.482;2023-05-23T08:53:45;3.65;;;3.35;;
53931;SDS011;39844;52.496;13.482;2023-05-23T08:56:12;3.95;;;2.88;;
53931;SDS011;39844;52.496;13.482;2023-05-23T08:58:38;4.55;;;3.50;;
53931;SDS011;39844;52.496;13.482;2023-05-23T09:01:05;5.10;;;3.47;;
53931;SDS011;39844;52.496;13.482;2023-05-23T09:03:31;4.13;;;3.28;;
53931;SDS011;39844;52.496;13.482;2023-05-23T09:05:56;4.05;;;3.35;;
53931;SDS011;39844;52.496;13.482;2023-05-23T09:08:21;5.22;;;3.40;;
53931;SDS011;39844;52.496;13.482;2023-05-23T09:10:47;5.97;;;3.47;;
53931;SDS011;39844;52.496;13.482;2023-05-23T09:13:13;6.53;;;3.03;;
53931;SDS011;39844;52.496;13.482;2023-05-23T09:15:46;3.38;;;3.08;;
53931;SDS011;39844;52.496;13.482;2023-05-23T09:18:20;7.05;;;3.30;;
53931;SDS011;39844;52.496;13.482;2023-05-23T09:20:45;4.43;;;3.75;;
53931;SDS011;39844;52.496;13.482;2023-05-23T09:23:12;4.47;;;3.10;;
53931;SDS011;39844;52.496;13.482;2023-05-23T09:25:44;4.10;;;3.65;;
53931;SDS011;39844;52.496;13.482;2023-05-23T09:28:10;3.20;;;2.90;;
53931;SDS011;39844;52.496;13.482;2023-05-23T09:30:37;4.60;;;3.10;;
53931;SDS011;39844;52.496;13.482;2023-05-23T09:33:03;4.15;;;3.10;;
53931;SDS011;39844;52.496;13.482;2023-05-23T09:35:28;3.42;;;3.13;;
53931;SDS011;39844;52.496;13.482;2023-05-23T09:37:53;7.03;;;3.13;;
53931;SDS011;39844;52.496;13.482;2023-05-23T09:40:19;3.40;;;3.10;;
53931;SDS011;39844;52.496;13.482;2023-05-23T09:42:44;6.95;;;3.63;;
53931;SDS011;39844;52.496;13.482;2023-05-23T09:45:11;5.32;;;3.70;;
53931;SDS011;39844;52.496;13.482;2023-05-23T09:47:38;4.03;;;3.72;;
53931;SDS011;39844;52.496;13.482;2023-05-23T09:50:03;5.05;;;3.83;;
53931;SDS011;39844;52.496;13.482;2023-05-23T09:52:35;4.47;;;3.75;;
53931;SDS011;39844;52.496;13.482;2023-05-23T09:55:01;5.95;;;4.43;;
53931;SDS011;39844;52.496;13.482;2023-05-23T09:57:27;4.47;;;4.07;;
53931;SDS011;39844;52.496;13.482;2023-05-23T09:59:52;4.78;;;3.85;;
53931;SDS011;39844;52.496;13.482;2023-05-23T10:02:23;5.50;;;3.90;;
53931;SDS011;39844;52.496;13.482;2023-05-23T10:05:12;6.63;;;3.70;;
53931;SDS011;39844;52.496;13.482;2023-05-23T10:07:46;3.80;;;3.40;;
53931;SDS011;39844;52.496;13.482;2023-05-23T10:10:11;5.05;;;3.53;;
53931;SDS011;39844;52.496;13.482;2023-05-23T10:12:48;4.32;;;3.35;;
53931;SDS011;39844;52.496;13.482;2023-05-23T10:15:15;4.32;;;3.65;;
53931;SDS011;39844;52.496;13.482;2023-05-23T10:18:02;10.63;;;3.80;;
53931;SDS011;39844;52.496;13.482;2023-05-23T10:20:31;5.57;;;4.00;;
53931;SDS011;39844;52.496;13.482;2023-05-23T10:22:58;5.18;;;3.50;;
53931;SDS011;39844;52.496;13.482;2023-05-23T10:25:25;4.22;;;3.40;;
53931;SDS011;39844;52.496;13.482;2023-05-23T10:27:52;4.78;;;3.35;;
53931;SDS011;39844;52.496;13.482;2023-05-23T10:30:19;3.90;;;3.45;;
53931;SDS011;39844;52.496;13.482;2023-05-23T10:32:45;7.75;;;4.32;;
53931;SDS011;39844;52.496;13.482;2023-05-23T10:38:02;6.25;;;4.50;;
53931;SDS011;39844;52.496;13.482;2023-05-23T10:43:47;6.60;;;4.05;;
53931;SDS011;39844;52.496;13.482;2023-05-23T10:46:48;5.82;;;4.10;;
53931;SDS011;39844;52.496;13.482;2023-05-23T10:49:17;4.82;;;4.32;;
53931;SDS011;39844;52.496;13.482;2023-05-23T10:51:42;5.68;;;3.80;;
53931;SDS011;39844;52.496;13.482;2023-05-23T10:54:10;4.55;;;4.13;;
53931;SDS011;39844;52.496;13.482;2023-05-23T10:56:36;8.57;;;5.07;;
53931;SDS011;39844;52.496;13.482;2023-05-23T10:59:03;7.27;;;5.60;;
53931;SDS011;39844;52.496;13.482;2023-05-23T11:01:29;6.40;;;5.43;;
53931;SDS011;39844;52.496;13.482;2023-05-23T11:03:54;7.95;;;5.55;;
53931;SDS011;39844;52.496;13.482;2023-05-23T11:06:35;6.22;;;5.60;;
53931;SDS011;39844;52.496;13.482;2023-05-23T11:09:13;6.28;;;5.68;;
53931;SDS011;39844;52.496;13.482;2023-05-23T11:14:14;7.20;;;6.20;;
53931;SDS011;39844;52.496;13.482;2023-05-23T11:16:40;7.35;;;5.97;;
53931;SDS011;39844;52.496;13.482;2023-05-23T11:19:25;6.70;;;5.80;;
53931;SDS011;39844;52.496;13.482;2023-05-23T11:21:58;8.90;;;5.95;;
53931;SDS011;39844;52.496;13.482;2023-05-23T11:32:31;9.15;;;7.22;;
53931;SDS011;39844;52.496;13.482;2023-05-23T11:35:00;8.00;;;6.85;;
53931;SDS011;39844;52.496;13.482;2023-05-23T11:37:30;9.60;;;7.43;;
53931;SDS011;39844;52.496;13.482;2023-05-23T11:39:56;11.05;;;8.18;;
53931;SDS011;39844;52.496;13.482;2023-05-23T11:42:22;10.02;;;7.78;;
53931;SDS011;39844;52.496;13.482;2023-05-23T11:44:48;13.02;;;7.25;;
53931;SDS011;39844;52.496;13.482;2023-05-23T11:47:14;10.68;;;7.90;;
53931;SDS011;39844;52.496;13.482;2023-05-23T11:49:39;9.90;;;7.55;;
53931;SDS011;39844;52.496;13.482;2023-05-23T11:52:04;12.00;;;8.80;;
53931;SDS011;39844;52.496;13.482;2023-05-23T11:54:30;11.02;;;8.23;;
53931;SDS011;39844;52.496;13.482;2023-05-23T11:56:56;9.80;;;7.60;;
53931;SDS011;39844;52.496;13.482;2023-05-23T11:59:22;10.05;;;7.60;;
53931;SDS011;39844;52.496;13.482;2023-05-23T12:01:49;10.23;;;7.22;;
53931;SDS011;39844;52.496;13.482;2023-05-23T12:04:14;13.13;;;7.85;;
53931;SDS011;39844;52.496;13.482;2023-05-23T12:06:40;12.48;;;7.95;;
53931;SDS011;39844;52.496;13.482;2023-05-23T12:09:06;11.77;;;7.55;;
53931;SDS011;39844;52.496;13.482;2023-05-23T12:11:32;10.27;;;7.68;;
53931;SDS011;39844;52.496;13.482;2023-05-23T12:13:58;14.40;;;8.15;;
53931;SDS011;39844;52.496;13.482;2023-05-23T12:16:24;12.02;;;8.15;;
53931;SDS011;39844;52.496;13.482;2023-05-23T12:18:49;13.75;;;8.90;;
53931;SDS011;39844;52.496;13.482;2023-05-23T12:21:17;10.32;;;7.60;;
53931;SDS011;39844;52.496;13.482;2023-05-23T12:23:42;12.65;;;8.50;;
53931;SDS011;39844;52.496;13.482;2023-05-23T12:26:08;12.27;;;7.78;;
53931;SDS011;39844;52.496;13.482;2023-05-23T12:28:34;14.43;;;8.35;;
53931;SDS011;39844;52.496;13.482;2023-05-23T12:31:11;10.25;;;7.60;;
53931;SDS011;39844;52.496;13.482;2023-05-23T12:33:40;11.30;;;7.68;;
53931;SDS011;39844;52.496;13.482;2023-05-23T12:36:06;10.82;;;8.30;;
53931;SDS011;39844;52.496;13.482;2023-05-23T12:38:35;8.50;;;7.18;;
53931;SDS011;39844;52.496;13.482;2023-05-23T12:41:07;13.10;;;7.78;;
53931;SDS011;39844;52.496;13.482;2023-05-23T12:43:39;12.52;;;7.97;;
53931;SDS011;39844;52.496;13.482;2023-05-23T12:46:05;10.80;;;8.18;;
53931;SDS011;39844;52.496;13.482;2023-05-23T12:48:30;14.05;;;9.27;;
53931;SDS011;39844;52.496;13.482;2023-05-23T12:50:55;15.27;;;8.48;;
53931;SDS011;39844;52.496;13.482;2023-05-23T12:53:21;14.02;;;8.27;;
53931;SDS011;39844;52.496;13.482;2023-05-23T12:55:46;12.80;;;8.07;;
53931;SDS011;39844;52.496;13.482;2023-05-23T12:58:11;14.75;;;8.13;;
53931;SDS011;39844;52.496;13.482;2023-05-23T13:00:37;13.27;;;8.13;;
53931;SDS011;39844;52.496;13.482;2023-05-23T13:03:02;9.85;;;8.10;;
53931;SDS011;39844;52.496;13.482;2023-05-23T13:05:27;10.95;;;7.82;;
53931;SDS011;39844;52.496;13.482;2023-05-23T13:07:53;12.25;;;7.38;;
53931;SDS011;39844;52.496;13.482;2023-05-23T13:10:18;9.30;;;7.00;;
53931;SDS011;39844;52.496;13.482;2023-05-23T13:12:43;8.90;;;7.15;;
53931;SDS011;39844;52.496;13.482;2023-05-23T13:15:09;8.83;;;6.57;;
53931;SDS011;39844;52.496;13.482;2023-05-23T13:17:34;8.73;;;6.20;;
53931;SDS011;39844;52.496;13.482;2023-05-23T13:20:00;10.43;;;6.23;;
53931;SDS011;39844;52.496;13.482;2023-05-23T13:22:25;9.90;;;7.23;;
53931;SDS011;39844;52.496;13.482;2023-05-23T13:24:50;11.55;;;6.68;;
53931;SDS011;39844;52.496;13.482;2023-05-23T13:27:16;8.80;;;6.17;;
53931;SDS011;39844;52.496;13.482;2023-05-23T13:29:42;10.07;;;7.03;;
53931;SDS011;39844;52.496;13.482;2023-05-23T13:32:07;10.13;;;7.37;;
53931;SDS011;39844;52.496;13.482;2023-05-23T13:34:32;10.38;;;7.63;;
53931;SDS011;39844;52.496;13.482;2023-05-23T13:36:58;11.23;;;7.33;;
53931;SDS011;39844;52.496;13.482;2023-05-23T13:39:23;13.23;;;8.33;;
53931;SDS011;39844;52.496;13.482;2023-05-23T13:41:49;9.97;;;7.50;;
53931;SDS011;39844;52.496;13.482;2023-05-23T13:44:14;12.13;;;7.60;;
53931;SDS011;39844;52.496;13.482;2023-05-23T13:46:39;12.40;;;7.90;;
53931;SDS011;39844;52.496;13.482;2023-05-23T13:49:06;11.97;;;7.30;;
53931;SDS011;39844;52.496;13.482;2023-05-23T13:51:31;9.33;;;7.07;;
53931;SDS011;39844;52.496;13.482;2023-05-23T13:53:56;12.17;;;6.53;;
53931;SDS011;39844;52.496;13.482;2023-05-23T13:56:22;15.07;;;7.43;;
53931;SDS011;39844;52.496;13.482;2023-05-23T13:58:47;12.07;;;7.47;;
53931;SDS011;39844;52.496;13.482;2023-05-23T14:01:12;12.03;;;7.30;;
53931;SDS011;39844;52.496;13.482;2023-05-23T14:03:38;12.30;;;7.30;;
53931;SDS011;39844;52.496;13.482;2023-05-23T14:06:03;12.17;;;6.97;;
53931;SDS011;39844;52.496;13.482;2023-05-23T14:08:28;11.03;;;6.50;;
53931;SDS011;39844;52.496;13.482;2023-05-23T14:10:54;9.83;;;6.33;;
53931;SDS011;39844;52.496;13.482;2023-05-23T14:13:19;13.07;;;7.93;;
53931;SDS011;39844;52.496;13.482;2023-05-23T14:15:45;11.07;;;6.77;;
53931;SDS011;39844;52.496;13.482;2023-05-23T14:18:10;12.17;;;7.43;;
53931;SDS011;39844;52.496;13.482;2023-05-23T14:20:35;16.93;;;7.83;;
53931;SDS011;39844;52.496;13.482;2023-05-23T14:23:01;12.83;;;7.00;;
53931;SDS011;39844;52.496;13.482;2023-05-23T14:25:26;14.27;;;8.03;;
53931;SDS011;39844;52.496;13.482;2023-05-23T14:27:51;12.50;;;7.83;;
53931;SDS011;39844;52.496;13.482;2023-05-23T14:30:16;11.70;;;7.40;;
53931;SDS011;39844;52.496;13.482;2023-05-23T14:32:42;16.70;;;8.17;;
53931;SDS011;39844;52.496;13.482;2023-05-23T14:35:10;13.83;;;7.57;;
53931;SDS011;39844;52.496;13.482;2023-05-23T14:37:36;12.83;;;7.20;;
53931;SDS011;39844;52.496;13.482;2023-05-23T14:40:01;14.00;;;7.33;;
53931;SDS011;39844;52.496;13.482;2023-05-23T14:42:30;15.27;;;8.47;;
53931;SDS011;39844;52.496;13.482;2023-05-23T14:44:55;14.50;;;8.07;;
53931;SDS011;39844;52.496;13.482;2023-05-23T14:47:20;16.17;;;8.67;;